createdAt,value
2022-08-24T00:00:45.295Z,4.0455
2022-08-24T00:05:57.565Z,4.0504
2022-08-24T00:11:09.896Z,4.0455
2022-08-24T00:16:22.906Z,4.0406
2022-08-24T00:21:34.837Z,4.0406
2022-08-24T00:26:46.984Z,4.0406
2022-08-24T00:31:59.452Z,4.0504
2022-08-24T00:37:11.595Z,4.0455
2022-08-24T00:42:23.790Z,4.0504
2022-08-24T00:47:35.989Z,4.0406
2022-08-24T00:52:48.052Z,4.0406
2022-08-24T00:58:00.308Z,4.0406
2022-08-24T01:03:12.543Z,4.0406
2022-08-24T01:08:24.854Z,4.0406
2022-08-24T01:13:36.906Z,4.0406
2022-08-24T01:18:50.244Z,4.0309
2022-08-24T01:24:02.065Z,4.0309
2022-08-24T01:29:15.046Z,4.0309
2022-08-24T01:34:27.048Z,4.0455
2022-08-24T01:39:39.409Z,4.0309
2022-08-24T01:44:51.504Z,4.0406
2022-08-24T01:50:03.680Z,4.0309
2022-08-24T01:55:23.633Z,4.0309
2022-08-24T02:00:33.851Z,4.0309
2022-08-24T02:05:45.837Z,4.0309
2022-08-24T02:10:58.194Z,4.0309
2022-08-24T02:16:10.474Z,4.0309
2022-08-24T02:21:22.384Z,4.0309
2022-08-24T02:26:34.379Z,4.0309
2022-08-24T02:31:46.540Z,4.026
2022-08-24T02:36:58.672Z,4.026
2022-08-24T02:42:10.719Z,4.026
2022-08-24T02:47:40.047Z,4.026
2022-08-24T02:52:49.462Z,4.026
2022-08-24T02:58:01.349Z,4.026
2022-08-24T03:03:13.216Z,4.026
2022-08-24T03:08:34.859Z,4.026
2022-08-24T03:13:45.629Z,4.0309
2022-08-24T03:18:57.567Z,4.026
2022-08-24T03:24:09.988Z,4.026
2022-08-24T03:29:25.008Z,4.0211
2022-08-24T03:34:36.459Z,4.026
2022-08-24T03:39:48.779Z,4.0309
2022-08-24T03:45:00.809Z,4.0211
2022-08-24T03:50:12.820Z,4.0211
2022-08-24T03:55:24.950Z,4.0211
2022-08-24T04:00:37.369Z,4.0211
2022-08-24T04:05:49.711Z,4.0211
2022-08-24T04:11:01.780Z,4.0211
2022-08-24T04:16:14.509Z,4.0211
2022-08-24T04:21:26.506Z,4.0211
2022-08-24T04:26:46.959Z,4.0211
2022-08-24T04:31:57.532Z,4.0211
2022-08-24T04:37:12.468Z,4.0162
2022-08-24T04:42:25.846Z,4.0162
2022-08-24T04:47:40.780Z,4.0162
2022-08-24T04:52:52.824Z,4.0162
2022-08-24T04:58:04.991Z,4.0162
2022-08-24T05:03:20.204Z,4.0211
2022-08-24T05:08:31.190Z,4.0162
2022-08-24T05:13:43.312Z,4.0162
2022-08-24T05:18:55.586Z,4.0162
2022-08-24T05:24:07.799Z,4.0162
2022-08-24T05:29:20.146Z,4.0162
2022-08-24T05:34:32.048Z,4.0162
2022-08-24T05:39:44.572Z,4.0162
2022-08-24T05:44:56.698Z,4.0162
2022-08-24T05:50:09.016Z,4.0162
2022-08-24T05:55:21.184Z,4.0162
2022-08-24T06:00:33.398Z,4.0162
2022-08-24T06:05:45.527Z,4.0162
2022-08-24T06:10:57.793Z,4.0162
2022-08-24T06:16:23.470Z,4.0162
2022-08-24T06:21:32.833Z,4.0162
2022-08-24T06:26:51.348Z,4.0211
2022-08-24T06:32:02.901Z,4.0114
2022-08-24T06:37:16.107Z,4.0162
2022-08-24T06:42:28.008Z,4.0162
2022-08-24T06:47:40.268Z,4.0114
2022-08-24T06:52:52.777Z,4.0114
2022-08-24T06:58:05.224Z,4.0162
2022-08-24T07:03:17.964Z,4.0114
2022-08-24T07:08:30.425Z,4.0114
2022-08-24T07:13:43.044Z,4.0114
2022-08-24T07:18:55.664Z,4.0162
2022-08-24T07:24:08.426Z,4.0114
2022-08-24T07:30:28.326Z,4.0114
2022-08-24T07:35:34.559Z,4.0065
2022-08-24T07:42:32.085Z,4.0114
2022-08-24T07:47:56.694Z,4.0065
2022-08-24T07:53:13.936Z,4.0065
2022-08-24T07:58:24.876Z,4.0065
2022-08-24T08:03:37.376Z,4.0065
2022-08-24T08:08:50.030Z,4.0065
2022-08-24T08:14:02.470Z,4.0114
2022-08-24T08:19:14.933Z,4.0114
2022-08-24T08:24:27.471Z,4.0065
2022-08-24T08:29:39.933Z,4.0114
2022-08-24T08:34:52.779Z,4.0065
2022-08-24T08:40:05.785Z,4.0065
2022-08-24T08:45:18.258Z,4.0114
2022-08-24T08:50:30.728Z,4.0065
2022-08-24T08:55:43.337Z,4.0065
2022-08-24T09:00:56.187Z,4.0065
2022-08-24T09:06:08.538Z,4.0114
2022-08-24T09:11:20.998Z,4.0065
2022-08-24T09:16:33.961Z,4.0065
2022-08-24T09:21:46.493Z,4.0065
2022-08-24T09:26:59.126Z,4.0065
2022-08-24T09:32:18.847Z,4.0065
2022-08-24T09:37:30.546Z,4.0065
2022-08-24T09:42:43.127Z,4.0065
2022-08-24T09:47:55.658Z,4.0065
2022-08-24T09:53:08.408Z,4.0065
2022-08-24T09:58:21.008Z,4.0114
2022-08-24T10:03:39.410Z,4.0114
2022-08-24T10:08:55.655Z,4.0065
2022-08-24T10:14:08.237Z,4.0114
2022-08-24T10:19:20.876Z,4.0114
2022-08-24T10:24:34.118Z,4.0065
2022-08-24T10:29:46.840Z,4.0114
2022-08-24T10:34:59.302Z,4.0162
2022-08-24T10:40:12.197Z,4.0114
2022-08-24T10:45:26.623Z,4.0211
2022-08-24T10:50:38.612Z,4.0114
2022-08-24T10:55:51.450Z,4.0211
2022-08-24T11:01:04.560Z,4.0065
2022-08-24T11:06:17.090Z,4.0114
2022-08-24T11:11:29.761Z,4.0162
2022-08-24T11:16:42.972Z,4.0114
2022-08-24T11:21:55.521Z,4.0114
2022-08-24T11:27:07.789Z,4.0504
2022-08-24T11:32:20.971Z,4.0455
2022-08-24T11:37:34.381Z,4.0455
2022-08-24T11:42:47.564Z,4.0504
2022-08-24T11:48:00.838Z,4.065
2022-08-24T11:53:13.990Z,4.0699
2022-08-24T11:58:27.399Z,4.0699
2022-08-24T12:19:12.514Z,4.1041
2022-08-24T12:29:37.441Z,4.1187
2022-08-24T12:34:51.100Z,4.1431
2022-08-24T12:40:04.798Z,4.1431
2022-08-24T12:45:17.390Z,4.1431
2022-08-24T12:50:30.621Z,4.1724
2022-08-24T13:00:54.759Z,4.1382
2022-08-24T13:06:07.389Z,4.1236
2022-08-24T13:11:20.011Z,4.1138
2022-08-24T13:16:32.774Z,4.1138
2022-08-24T13:26:56.421Z,4.1138
2022-08-24T13:37:19.039Z,4.1334
2022-08-24T13:42:31.610Z,4.1382
2022-08-24T14:08:27.370Z,4.1773
2022-08-24T14:18:50.369Z,4.1626
2022-08-24T14:24:02.910Z,4.1578
2022-08-24T14:29:15.558Z,4.1626
2022-08-24T14:34:28.550Z,4.1431
2022-08-24T14:55:12.752Z,4.1334
2022-08-24T15:00:25.481Z,4.1334
2022-08-24T15:21:10.077Z,4.1236
2022-08-24T15:26:22.879Z,4.1236
2022-08-24T15:36:46.047Z,4.1187
2022-08-24T15:52:19.512Z,4.1236
2022-08-24T15:57:32.202Z,4.1138
2022-08-24T16:07:55.118Z,4.1236
2022-08-24T16:13:07.939Z,4.1334
2022-08-24T16:18:20.880Z,4.1431
2022-08-24T16:23:33.768Z,4.1431
2022-08-24T16:28:47.511Z,4.1578
2022-08-24T16:34:00.429Z,4.148
2022-08-24T16:39:13.238Z,4.1578
2022-08-24T16:54:46.209Z,4.1773
2022-08-24T16:59:59.204Z,4.1773
2022-08-24T17:15:32.130Z,4.1773
2022-08-24T17:20:44.799Z,4.1724
2022-08-24T17:25:57.979Z,4.1724
2022-08-24T17:41:30.561Z,4.1626
2022-08-24T17:51:53.378Z,4.148
2022-08-24T17:57:05.888Z,4.1431
2022-08-24T18:02:18.822Z,4.1382
2022-08-24T18:07:55.523Z,4.1382
2022-08-24T18:13:05.624Z,4.1285
2022-08-24T18:18:17.911Z,4.1285
2022-08-24T18:23:31.562Z,4.1236
2022-08-24T18:28:45.153Z,4.1236
2022-08-24T18:33:57.274Z,4.1236
2022-08-24T18:39:09.942Z,4.1187
2022-08-24T18:44:22.537Z,4.1187
2022-08-24T18:49:35.215Z,4.1138
2022-08-24T18:54:47.392Z,4.1138
2022-08-24T18:59:59.739Z,4.109
2022-08-24T19:05:12.089Z,4.1187
2022-08-24T19:10:24.880Z,4.109
2022-08-24T19:15:41.460Z,4.109
2022-08-24T19:20:55.790Z,4.1041
2022-08-24T19:26:07.920Z,4.1041
2022-08-24T19:31:20.593Z,4.1041
2022-08-24T19:36:32.820Z,4.0992
2022-08-24T19:41:50.331Z,4.0992
2022-08-24T19:47:05.640Z,4.0894
2022-08-24T19:52:17.750Z,4.0894
2022-08-24T19:57:30.170Z,4.0992
2022-08-24T20:02:42.710Z,4.0846
2022-08-24T20:07:55.070Z,4.0846
2022-08-24T20:13:08.060Z,4.0846
2022-08-24T20:18:20.051Z,4.0846
2022-08-24T20:23:32.520Z,4.0797
2022-08-24T20:28:44.892Z,4.0797
2022-08-24T20:33:57.473Z,4.0797
2022-08-24T20:39:09.792Z,4.0748
2022-08-24T20:44:24.670Z,4.0797
2022-08-24T20:49:36.242Z,4.0846
2022-08-24T20:54:48.641Z,4.0748
2022-08-24T21:00:00.931Z,4.0748
2022-08-24T21:05:13.050Z,4.0748
2022-08-24T21:10:28.072Z,4.0699
2022-08-24T21:15:39.831Z,4.0699
2022-08-24T21:21:05.580Z,4.0699
2022-08-24T21:26:14.811Z,4.0699
2022-08-24T21:31:27.507Z,4.0699
2022-08-24T21:36:40.100Z,4.065
2022-08-24T21:41:52.362Z,4.065
2022-08-24T21:47:04.800Z,4.0748
2022-08-24T21:52:17.571Z,4.065
2022-08-24T21:57:29.840Z,4.0748
2022-08-24T22:02:42.660Z,4.065
2022-08-24T22:07:54.790Z,4.065
2022-08-24T22:13:08.931Z,4.065
2022-08-24T22:18:20.830Z,4.0602
2022-08-24T22:23:32.929Z,4.0602
2022-08-24T22:28:45.101Z,4.0602
2022-08-24T22:33:57.382Z,4.0602
2022-08-24T22:39:09.621Z,4.065
2022-08-24T22:44:22.143Z,4.0602
2022-08-24T22:49:37.482Z,4.0553
2022-08-24T22:54:51.089Z,4.0553
2022-08-24T23:00:02.600Z,4.0553
2022-08-24T23:05:14.944Z,4.0553
2022-08-24T23:10:27.249Z,4.0553
2022-08-24T23:15:45.065Z,4.0553
2022-08-24T23:21:00.948Z,4.0553
2022-08-24T23:26:19.358Z,4.0504
2022-08-24T23:31:35.295Z,4.0602
2022-08-24T23:36:47.106Z,4.0504
2022-08-24T23:41:59.243Z,4.0602
2022-08-24T23:47:12.543Z,4.0504
2022-08-24T23:52:31.203Z,4.0602
2022-08-24T23:57:46.384Z,4.0504
